Terminal Aerodrome Forecast
Issued by NWS

Home | Current Version | Previous Version | Text Only | Print | Product List | Glossary On
Versions: 1 2 3 4 5 6 7 8 9 10 11 12 13 14 15 16
000
FTUS41 KBTV 010800 AAA
TAFSLK
TAF AMD
KSLK 010801Z 0108/0206 00000KT 3SM BR OVC010
      TEMPO 0108/0112 1/4SM FG VV001
     FM011300 23006KT P6SM BKN035=

USA.gov is the U.S. government's official web portal to all federal, state and local government web resources and services.